sensor_id;sensor_type;location;lat;lon;timestamp;temperature;humidity
67157;SHT31;54086;50.126;8.710;2023-06-10T00:00:37;21.49;64.56
67157;SHT31;54086;50.126;8.710;2023-06-10T00:03:03;21.50;64.63
67157;SHT31;54086;50.126;8.710;2023-06-10T00:05:29;21.49;64.59
67157;SHT31;54086;50.126;8.710;2023-06-10T00:07:59;21.39;64.93
67157;SHT31;54086;50.126;8.710;2023-06-10T00:10:24;21.32;65.11
67157;SHT31;54086;50.126;8.710;2023-06-10T00:12:50;21.29;65.13
67157;SHT31;54086;50.126;8.710;2023-06-10T00:15:16;21.29;65.18
67157;SHT31;54086;50.126;8.710;2023-06-10T00:17:42;21.25;65.37
67157;SHT31;54086;50.126;8.710;2023-06-10T00:20:09;21.12;65.63
67157;SHT31;54086;50.126;8.710;2023-06-10T00:22:37;21.08;65.36
67157;SHT31;54086;50.126;8.710;2023-06-10T00:25:04;21.05;65.44
67157;SHT31;54086;50.126;8.710;2023-06-10T00:27:30;21.04;65.37
67157;SHT31;54086;50.126;8.710;2023-06-10T00:30:02;21.04;65.35
67157;SHT31;54086;50.126;8.710;2023-06-10T00:32:29;20.98;65.50
67157;SHT31;54086;50.126;8.710;2023-06-10T00:34:55;21.01;65.49
67157;SHT31;54086;50.126;8.710;2023-06-10T00:37:20;21.04;65.21
67157;SHT31;54086;50.126;8.710;2023-06-10T00:39:46;21.04;65.32
67157;SHT31;54086;50.126;8.710;2023-06-10T00:42:11;20.87;65.54
67157;SHT31;54086;50.126;8.710;2023-06-10T00:44:36;20.92;65.27
67157;SHT31;54086;50.126;8.710;2023-06-10T00:47:02;20.90;65.43
67157;SHT31;54086;50.126;8.710;2023-06-10T00:49:28;20.90;65.32
67157;SHT31;54086;50.126;8.710;2023-06-10T00:51:54;20.85;65.50
67157;SHT31;54086;50.126;8.710;2023-06-10T00:54:21;20.87;65.35
67157;SHT31;54086;50.126;8.710;2023-06-10T00:56:47;20.91;65.22
67157;SHT31;54086;50.126;8.710;2023-06-10T00:59:13;20.80;65.57
67157;SHT31;54086;50.126;8.710;2023-06-10T01:01:41;20.74;65.65
67157;SHT31;54086;50.126;8.710;2023-06-10T01:04:08;20.78;65.57
67157;SHT31;54086;50.126;8.710;2023-06-10T01:09:25;20.76;65.46
67157;SHT31;54086;50.126;8.710;2023-06-10T01:12:12;20.74;65.28
67157;SHT31;54086;50.126;8.710;2023-06-10T01:14:41;20.78;65.12
67157;SHT31;54086;50.126;8.710;2023-06-10T01:17:10;20.78;65.16
67157;SHT31;54086;50.126;8.710;2023-06-10T01:19:36;20.71;65.30
67157;SHT31;54086;50.126;8.710;2023-06-10T01:22:02;20.53;65.56
67157;SHT31;54086;50.126;8.710;2023-06-10T01:24:28;20.53;65.65
67157;SHT31;54086;50.126;8.710;2023-06-10T01:26:56;20.57;65.57
67157;SHT31;54086;50.126;8.710;2023-06-10T01:29:32;20.53;65.53
67157;SHT31;54086;50.126;8.710;2023-06-10T01:32:07;20.49;65.51
67157;SHT31;54086;50.126;8.710;2023-06-10T01:34:35;20.44;65.66
67157;SHT31;54086;50.126;8.710;2023-06-10T01:37:02;20.47;65.52
67157;SHT31;54086;50.126;8.710;2023-06-10T01:39:28;20.46;65.58
67157;SHT31;54086;50.126;8.710;2023-06-10T01:41:54;20.32;65.72
67157;SHT31;54086;50.126;8.710;2023-06-10T01:44:22;20.33;65.68
67157;SHT31;54086;50.126;8.710;2023-06-10T01:46:48;20.33;65.51
67157;SHT31;54086;50.126;8.710;2023-06-10T01:49:13;20.39;65.41
67157;SHT31;54086;50.126;8.710;2023-06-10T01:51:39;20.28;65.63
67157;SHT31;54086;50.126;8.710;2023-06-10T01:54:04;20.36;65.16
67157;SHT31;54086;50.126;8.710;2023-06-10T01:56:30;20.25;65.58
67157;SHT31;54086;50.126;8.710;2023-06-10T01:58:56;20.23;65.60
67157;SHT31;54086;50.126;8.710;2023-06-10T02:01:24;20.13;65.77
67157;SHT31;54086;50.126;8.710;2023-06-10T02:03:50;20.22;65.77
67157;SHT31;54086;50.126;8.710;2023-06-10T02:06:16;20.18;65.65
67157;SHT31;54086;50.126;8.710;2023-06-10T02:08:41;20.20;65.64
67157;SHT31;54086;50.126;8.710;2023-06-10T02:11:07;20.15;65.70
67157;SHT31;54086;50.126;8.710;2023-06-10T02:13:32;20.20;65.56
67157;SHT31;54086;50.126;8.710;2023-06-10T02:15:58;20.10;65.87
67157;SHT31;54086;50.126;8.710;2023-06-10T02:18:24;20.05;66.01
67157;SHT31;54086;50.126;8.710;2023-06-10T02:20:52;20.09;66.06
67157;SHT31;54086;50.126;8.710;2023-06-10T02:23:17;20.05;66.18
67157;SHT31;54086;50.126;8.710;2023-06-10T02:25:43;19.93;66.20
67157;SHT31;54086;50.126;8.710;2023-06-10T02:28:08;19.89;66.36
67157;SHT31;54086;50.126;8.710;2023-06-10T02:30:34;19.91;66.32
67157;SHT31;54086;50.126;8.710;2023-06-10T02:32:59;19.83;66.71
67157;SHT31;54086;50.126;8.710;2023-06-10T02:35:26;19.72;66.97
67157;SHT31;54086;50.126;8.710;2023-06-10T02:37:51;19.77;66.81
67157;SHT31;54086;50.126;8.710;2023-06-10T02:40:17;19.75;66.84
67157;SHT31;54086;50.126;8.710;2023-06-10T02:42:42;19.71;67.06
67157;SHT31;54086;50.126;8.710;2023-06-10T02:45:08;19.71;66.70
67157;SHT31;54086;50.126;8.710;2023-06-10T02:47:33;19.65;66.99
67157;SHT31;54086;50.126;8.710;2023-06-10T02:49:59;19.61;66.64
67157;SHT31;54086;50.126;8.710;2023-06-10T02:52:24;19.62;66.70
67157;SHT31;54086;50.126;8.710;2023-06-10T02:54:50;19.70;66.59
67157;SHT31;54086;50.126;8.710;2023-06-10T02:57:16;19.72;66.43
67157;SHT31;54086;50.126;8.710;2023-06-10T02:59:41;19.55;66.80
67157;SHT31;54086;50.126;8.710;2023-06-10T03:02:06;19.64;66.54
67157;SHT31;54086;50.126;8.710;2023-06-10T03:04:32;19.60;66.67
67157;SHT31;54086;50.126;8.710;2023-06-10T03:06:58;19.54;66.82
67157;SHT31;54086;50.126;8.710;2023-06-10T03:09:28;19.38;67.34
67157;SHT31;54086;50.126;8.710;2023-06-10T03:11:54;19.41;67.45
67157;SHT31;54086;50.126;8.710;2023-06-10T03:14:19;19.37;67.59
67157;SHT31;54086;50.126;8.710;2023-06-10T03:16:45;19.40;67.61
67157;SHT31;54086;50.126;8.710;2023-06-10T03:19:10;19.33;67.88
67157;SHT31;54086;50.126;8.710;2023-06-10T03:21:36;19.40;67.79
67157;SHT31;54086;50.126;8.710;2023-06-10T03:24:03;19.27;68.04
67157;SHT31;54086;50.126;8.710;2023-06-10T03:26:28;19.19;68.21
67157;SHT31;54086;50.126;8.710;2023-06-10T03:28:53;19.20;68.10
67157;SHT31;54086;50.126;8.710;2023-06-10T03:31:19;19.14;68.08
67157;SHT31;54086;50.126;8.710;2023-06-10T03:33:44;19.24;67.94
67157;SHT31;54086;50.126;8.710;2023-06-10T03:36:11;19.20;67.91
67157;SHT31;54086;50.126;8.710;2023-06-10T03:38:37;19.19;67.70
67157;SHT31;54086;50.126;8.710;2023-06-10T03:41:02;19.26;67.64
67157;SHT31;54086;50.126;8.710;2023-06-10T03:43:28;19.26;67.68
67157;SHT31;54086;50.126;8.710;2023-06-10T03:45:53;19.17;67.91
67157;SHT31;54086;50.126;8.710;2023-06-10T03:48:19;19.11;67.84
67157;SHT31;54086;50.126;8.710;2023-06-10T03:50:44;19.00;68.16
67157;SHT31;54086;50.126;8.710;2023-06-10T03:53:12;19.10;68.08
67157;SHT31;54086;50.126;8.710;2023-06-10T03:55:38;19.23;67.10
67157;SHT31;54086;50.126;8.710;2023-06-10T03:58:03;19.23;67.41
67157;SHT31;54086;50.126;8.710;2023-06-10T04:00:28;19.24;67.15
67157;SHT31;54086;50.126;8.710;2023-06-10T04:02:54;19.24;67.10
67157;SHT31;54086;50.126;8.710;2023-06-10T04:05:23;19.21;67.02
67157;SHT31;54086;50.126;8.710;2023-06-10T04:07:48;19.23;67.07
67157;SHT31;54086;50.126;8.710;2023-06-10T04:10:14;19.20;67.04
67157;SHT31;54086;50.126;8.710;2023-06-10T04:12:41;19.33;67.46
67157;SHT31;54086;50.126;8.710;2023-06-10T04:15:06;19.30;66.54
67157;SHT31;54086;50.126;8.710;2023-06-10T04:17:32;19.31;66.39
67157;SHT31;54086;50.126;8.710;2023-06-10T04:19:57;19.34;66.47
67157;SHT31;54086;50.126;8.710;2023-06-10T04:22:23;19.46;65.82
67157;SHT31;54086;50.126;8.710;2023-06-10T04:24:48;19.51;65.73
67157;SHT31;54086;50.126;8.710;2023-06-10T04:27:14;19.46;65.75
67157;SHT31;54086;50.126;8.710;2023-06-10T04:29:40;19.34;65.96
67157;SHT31;54086;50.126;8.710;2023-06-10T04:32:06;19.43;65.82
67157;SHT31;54086;50.126;8.710;2023-06-10T04:34:33;19.50;65.96
67157;SHT31;54086;50.126;8.710;2023-06-10T04:36:58;19.62;65.43
67157;SHT31;54086;50.126;8.710;2023-06-10T04:39:24;19.62;65.20
67157;SHT31;54086;50.126;8.710;2023-06-10T04:41:49;19.58;65.69
67157;SHT31;54086;50.126;8.710;2023-06-10T04:44:15;19.64;65.40
67157;SHT31;54086;50.126;8.710;2023-06-10T04:46:40;19.62;65.18
67157;SHT31;54086;50.126;8.710;2023-06-10T04:49:05;19.61;65.37
67157;SHT31;54086;50.126;8.710;2023-06-10T04:51:31;19.68;65.28
67157;SHT31;54086;50.126;8.710;2023-06-10T04:53:57;19.81;64.95
67157;SHT31;54086;50.126;8.710;2023-06-10T04:56:23;19.85;64.93
67157;SHT31;54086;50.126;8.710;2023-06-10T04:58:49;19.82;64.94
67157;SHT31;54086;50.126;8.710;2023-06-10T05:01:15;19.89;64.70
67157;SHT31;54086;50.126;8.710;2023-06-10T05:03:40;19.89;64.72
67157;SHT31;54086;50.126;8.710;2023-06-10T05:06:05;19.95;64.65
67157;SHT31;54086;50.126;8.710;2023-06-10T05:08:31;19.99;64.45
67157;SHT31;54086;50.126;8.710;2023-06-10T05:10:56;20.06;64.28
67157;SHT31;54086;50.126;8.710;2023-06-10T05:13:21;20.06;64.39
67157;SHT31;54086;50.126;8.710;2023-06-10T05:15:47;20.13;64.26
67157;SHT31;54086;50.126;8.710;2023-06-10T05:18:13;20.19;63.81
67157;SHT31;54086;50.126;8.710;2023-06-10T05:20:38;20.13;64.23
67157;SHT31;54086;50.126;8.710;2023-06-10T05:23:04;20.25;64.08
67157;SHT31;54086;50.126;8.710;2023-06-10T05:25:31;20.32;63.99
67157;SHT31;54086;50.126;8.710;2023-06-10T05:27:57;20.34;64.03
67157;SHT31;54086;50.126;8.710;2023-06-10T05:30:23;20.37;63.87
67157;SHT31;54086;50.126;8.710;2023-06-10T05:32:49;20.54;63.75
67157;SHT31;54086;50.126;8.710;2023-06-10T05:35:16;20.51;63.59
67157;SHT31;54086;50.126;8.710;2023-06-10T05:37:42;20.63;63.35
67157;SHT31;54086;50.126;8.710;2023-06-10T05:40:08;20.77;62.81
67157;SHT31;54086;50.126;8.710;2023-06-10T05:42:34;20.88;62.77
67157;SHT31;54086;50.126;8.710;2023-06-10T05:44:59;20.95;62.38
67157;SHT31;54086;50.126;8.710;2023-06-10T05:47:24;20.95;62.43
67157;SHT31;54086;50.126;8.710;2023-06-10T05:49:50;20.97;62.48
67157;SHT31;54086;50.126;8.710;2023-06-10T05:52:17;20.84;62.97
67157;SHT31;54086;50.126;8.710;2023-06-10T05:54:43;20.73;63.46
67157;SHT31;54086;50.126;8.710;2023-06-10T05:57:09;20.77;63.47
67157;SHT31;54086;50.126;8.710;2023-06-10T05:59:35;20.78;63.18
67157;SHT31;54086;50.126;8.710;2023-06-10T06:02:01;20.92;62.96
67157;SHT31;54086;50.126;8.710;2023-06-10T06:04:26;20.90;62.98
67157;SHT31;54086;50.126;8.710;2023-06-10T06:06:51;21.14;62.73
67157;SHT31;54086;50.126;8.710;2023-06-10T06:09:17;21.17;62.32
67157;SHT31;54086;50.126;8.710;2023-06-10T06:11:42;21.19;62.49
67157;SHT31;54086;50.126;8.710;2023-06-10T06:14:08;21.32;62.36
67157;SHT31;54086;50.126;8.710;2023-06-10T06:16:33;21.39;62.60
67157;SHT31;54086;50.126;8.710;2023-06-10T06:18:58;21.32;62.58
67157;SHT31;54086;50.126;8.710;2023-06-10T06:21:24;21.38;62.82
67157;SHT31;54086;50.126;8.710;2023-06-10T06:23:49;21.42;62.93
67157;SHT31;54086;50.126;8.710;2023-06-10T06:26:15;21.60;62.49
67157;SHT31;54086;50.126;8.710;2023-06-10T06:28:40;21.75;61.98
67157;SHT31;54086;50.126;8.710;2023-06-10T06:31:06;21.75;62.04
67157;SHT31;54086;50.126;8.710;2023-06-10T06:33:32;21.89;61.77
67157;SHT31;54086;50.126;8.710;2023-06-10T06:35:57;21.94;61.57
67157;SHT31;54086;50.126;8.710;2023-06-10T06:38:23;21.98;61.53
67157;SHT31;54086;50.126;8.710;2023-06-10T06:40:48;22.13;61.48
67157;SHT31;54086;50.126;8.710;2023-06-10T06:43:13;22.27;61.07
67157;SHT31;54086;50.126;8.710;2023-06-10T06:45:39;22.24;61.45
67157;SHT31;54086;50.126;8.710;2023-06-10T06:48:05;22.27;60.90
67157;SHT31;54086;50.126;8.710;2023-06-10T06:50:30;22.24;61.26
67157;SHT31;54086;50.126;8.710;2023-06-10T06:52:56;22.27;61.37
67157;SHT31;54086;50.126;8.710;2023-06-10T06:55:21;22.24;61.21
67157;SHT31;54086;50.126;8.710;2023-06-10T06:57:46;22.38;60.98
67157;SHT31;54086;50.126;8.710;2023-06-10T07:00:12;22.48;61.19
67157;SHT31;54086;50.126;8.710;2023-06-10T07:02:38;22.48;61.21
67157;SHT31;54086;50.126;8.710;2023-06-10T07:05:04;22.65;61.17
67157;SHT31;54086;50.126;8.710;2023-06-10T07:07:29;22.72;61.03
67157;SHT31;54086;50.126;8.710;2023-06-10T07:09:55;22.78;60.08
67157;SHT31;54086;50.126;8.710;2023-06-10T07:12:20;22.94;59.70
67157;SHT31;54086;50.126;8.710;2023-06-10T07:14:49;23.00;59.83
67157;SHT31;54086;50.126;8.710;2023-06-10T07:17:14;23.07;59.44
67157;SHT31;54086;50.126;8.710;2023-06-10T07:19:45;23.22;59.72
67157;SHT31;54086;50.126;8.710;2023-06-10T07:22:11;23.23;59.35
67157;SHT31;54086;50.126;8.710;2023-06-10T07:24:36;23.37;58.58
67157;SHT31;54086;50.126;8.710;2023-06-10T07:27:02;23.43;57.85
67157;SHT31;54086;50.126;8.710;2023-06-10T07:29:27;23.53;57.78
67157;SHT31;54086;50.126;8.710;2023-06-10T07:31:53;23.49;57.31
67157;SHT31;54086;50.126;8.710;2023-06-10T07:34:18;23.47;57.73
67157;SHT31;54086;50.126;8.710;2023-06-10T07:36:44;23.56;57.92
67157;SHT31;54086;50.126;8.710;2023-06-10T07:39:09;23.58;58.37
67157;SHT31;54086;50.126;8.710;2023-06-10T07:41:35;23.67;57.58
67157;SHT31;54086;50.126;8.710;2023-06-10T07:44:00;23.68;57.55
67157;SHT31;54086;50.126;8.710;2023-06-10T07:46:26;23.60;57.33
67157;SHT31;54086;50.126;8.710;2023-06-10T07:48:53;23.63;58.10
67157;SHT31;54086;50.126;8.710;2023-06-10T07:51:18;23.61;58.02
67157;SHT31;54086;50.126;8.710;2023-06-10T07:53:44;23.82;57.67
67157;SHT31;54086;50.126;8.710;2023-06-10T07:56:09;23.50;57.98
67157;SHT31;54086;50.126;8.710;2023-06-10T07:58:35;23.74;57.70
67157;SHT31;54086;50.126;8.710;2023-06-10T08:01:03;24.00;57.58
67157;SHT31;54086;50.126;8.710;2023-06-10T08:03:29;24.12;57.58
67157;SHT31;54086;50.126;8.710;2023-06-10T08:05:54;24.55;56.68
67157;SHT31;54086;50.126;8.710;2023-06-10T08:08:19;24.66;56.84
67157;SHT31;54086;50.126;8.710;2023-06-10T08:10:45;24.55;57.30
67157;SHT31;54086;50.126;8.710;2023-06-10T08:13:10;24.67;56.95
67157;SHT31;54086;50.126;8.710;2023-06-10T08:15:36;24.69;57.35
67157;SHT31;54086;50.126;8.710;2023-06-10T08:18:01;24.72;56.49
67157;SHT31;54086;50.126;8.710;2023-06-10T08:20:27;24.93;56.47
67157;SHT31;54086;50.126;8.710;2023-06-10T08:22:52;25.00;56.71
67157;SHT31;54086;50.126;8.710;2023-06-10T08:25:18;24.88;56.93
67157;SHT31;54086;50.126;8.710;2023-06-10T08:27:43;25.01;57.33
67157;SHT31;54086;50.126;8.710;2023-06-10T08:30:09;24.94;56.39
67157;SHT31;54086;50.126;8.710;2023-06-10T08:32:36;25.13;56.30
67157;SHT31;54086;50.126;8.710;2023-06-10T08:35:01;25.15;56.28
67157;SHT31;54086;50.126;8.710;2023-06-10T08:37:27;25.48;55.78
67157;SHT31;54086;50.126;8.710;2023-06-10T08:39:52;25.55;55.71
67157;SHT31;54086;50.126;8.710;2023-06-10T08:44:46;26.65;54.75
67157;SHT31;54086;50.126;8.710;2023-06-10T08:47:14;27.05;53.11
67157;SHT31;54086;50.126;8.710;2023-06-10T08:49:45;27.33;52.11
67157;SHT31;54086;50.126;8.710;2023-06-10T08:52:16;27.40;50.95
67157;SHT31;54086;50.126;8.710;2023-06-10T08:54:58;27.32;51.61
67157;SHT31;54086;50.126;8.710;2023-06-10T08:57:24;27.57;51.56
67157;SHT31;54086;50.126;8.710;2023-06-10T08:59:52;27.43;51.62
67157;SHT31;54086;50.126;8.710;2023-06-10T09:02:18;27.42;50.89
67157;SHT31;54086;50.126;8.710;2023-06-10T09:04:47;28.04;50.11
67157;SHT31;54086;50.126;8.710;2023-06-10T09:07:14;27.83;49.81
67157;SHT31;54086;50.126;8.710;2023-06-10T09:09:42;28.29;49.29
67157;SHT31;54086;50.126;8.710;2023-06-10T09:12:08;28.24;49.56
67157;SHT31;54086;50.126;8.710;2023-06-10T09:14:33;28.58;49.76
67157;SHT31;54086;50.126;8.710;2023-06-10T09:16:59;28.49;49.63
67157;SHT31;54086;50.126;8.710;2023-06-10T09:19:28;28.69;49.45
67157;SHT31;54086;50.126;8.710;2023-06-10T09:21:54;28.41;49.90
67157;SHT31;54086;50.126;8.710;2023-06-10T09:24:22;29.34;48.12
67157;SHT31;54086;50.126;8.710;2023-06-10T09:26:47;29.37;48.01
67157;SHT31;54086;50.126;8.710;2023-06-10T09:29:13;28.79;49.15
67157;SHT31;54086;50.126;8.710;2023-06-10T09:31:39;29.11;48.49
67157;SHT31;54086;50.126;8.710;2023-06-10T09:34:13;29.35;48.23
67157;SHT31;54086;50.126;8.710;2023-06-10T09:36:39;29.74;47.37
67157;SHT31;54086;50.126;8.710;2023-06-10T09:39:05;29.71;47.35
67157;SHT31;54086;50.126;8.710;2023-06-10T09:41:41;29.93;47.17
67157;SHT31;54086;50.126;8.710;2023-06-10T09:44:17;30.10;47.25
67157;SHT31;54086;50.126;8.710;2023-06-10T09:46:46;29.81;47.22
67157;SHT31;54086;50.126;8.710;2023-06-10T09:49:12;29.21;48.35
67157;SHT31;54086;50.126;8.710;2023-06-10T09:51:37;29.67;48.07
67157;SHT31;54086;50.126;8.710;2023-06-10T09:54:03;29.51;48.16
67157;SHT31;54086;50.126;8.710;2023-06-10T09:56:36;29.61;48.27
67157;SHT31;54086;50.126;8.710;2023-06-10T09:59:02;29.79;48.34
67157;SHT31;54086;50.126;8.710;2023-06-10T10:01:30;29.33;48.08
67157;SHT31;54086;50.126;8.710;2023-06-10T10:03:55;29.64;47.51
67157;SHT31;54086;50.126;8.710;2023-06-10T10:06:21;29.99;46.15
67157;SHT31;54086;50.126;8.710;2023-06-10T10:08:50;30.56;45.94
67157;SHT31;54086;50.126;8.710;2023-06-10T10:11:20;30.73;45.94
67157;SHT31;54086;50.126;8.710;2023-06-10T10:13:52;30.30;46.65
67157;SHT31;54086;50.126;8.710;2023-06-10T10:16:25;30.81;46.02
67157;SHT31;54086;50.126;8.710;2023-06-10T10:19:00;31.24;45.23
67157;SHT31;54086;50.126;8.710;2023-06-10T10:21:32;31.46;44.75
67157;SHT31;54086;50.126;8.710;2023-06-10T10:24:04;31.52;44.17
67157;SHT31;54086;50.126;8.710;2023-06-10T10:26:33;30.80;44.54
67157;SHT31;54086;50.126;8.710;2023-06-10T10:31:29;30.80;45.31
67157;SHT31;54086;50.126;8.710;2023-06-10T10:34:01;31.05;44.42
67157;SHT31;54086;50.126;8.710;2023-06-10T10:36:27;31.50;43.24
67157;SHT31;54086;50.126;8.710;2023-06-10T10:38:54;31.61;43.08
67157;SHT31;54086;50.126;8.710;2023-06-10T10:41:20;30.43;44.22
67157;SHT31;54086;50.126;8.710;2023-06-10T10:43:46;30.92;43.15
67157;SHT31;54086;50.126;8.710;2023-06-10T10:46:16;31.52;43.00
67157;SHT31;54086;50.126;8.710;2023-06-10T10:48:42;30.73;43.42
67157;SHT31;54086;50.126;8.710;2023-06-10T10:51:11;30.47;43.70
67157;SHT31;54086;50.126;8.710;2023-06-10T10:53:37;30.66;43.28
67157;SHT31;54086;50.126;8.710;2023-06-10T10:56:16;29.93;44.77
67157;SHT31;54086;50.126;8.710;2023-06-10T10:59:18;30.32;44.75
67157;SHT31;54086;50.126;8.710;2023-06-10T11:01:45;30.50;43.92
67157;SHT31;54086;50.126;8.710;2023-06-10T11:04:12;29.96;44.38
67157;SHT31;54086;50.126;8.710;2023-06-10T11:06:37;29.75;43.98
67157;SHT31;54086;50.126;8.710;2023-06-10T11:09:25;29.67;44.06
67157;SHT31;54086;50.126;8.710;2023-06-10T11:11:52;30.32;43.42
67157;SHT31;54086;50.126;8.710;2023-06-10T11:14:26;31.29;41.76
67157;SHT31;54086;50.126;8.710;2023-06-10T11:16:58;31.16;42.03
67157;SHT31;54086;50.126;8.710;2023-06-10T11:19:37;30.74;42.39
67157;SHT31;54086;50.126;8.710;2023-06-10T11:22:06;30.10;43.51
67157;SHT31;54086;50.126;8.710;2023-06-10T11:24:32;30.74;42.98
67157;SHT31;54086;50.126;8.710;2023-06-10T11:32:34;32.00;40.42
67157;SHT31;54086;50.126;8.710;2023-06-10T11:35:02;31.34;41.81
67157;SHT31;54086;50.126;8.710;2023-06-10T11:37:28;31.08;42.14
67157;SHT31;54086;50.126;8.710;2023-06-10T11:39:56;30.48;43.39
67157;SHT31;54086;50.126;8.710;2023-06-10T11:42:22;30.46;41.72
67157;SHT31;54086;50.126;8.710;2023-06-10T11:44:52;31.73;40.69
67157;SHT31;54086;50.126;8.710;2023-06-10T11:47:18;32.33;39.89
67157;SHT31;54086;50.126;8.710;2023-06-10T11:49:44;32.33;41.29
67157;SHT31;54086;50.126;8.710;2023-06-10T11:52:10;31.89;41.33
67157;SHT31;54086;50.126;8.710;2023-06-10T11:54:36;31.70;41.56
67157;SHT31;54086;50.126;8.710;2023-06-10T11:57:02;31.97;40.94
67157;SHT31;54086;50.126;8.710;2023-06-10T11:59:29;32.37;40.46
67157;SHT31;54086;50.126;8.710;2023-06-10T12:01:55;32.41;41.14
67157;SHT31;54086;50.126;8.710;2023-06-10T12:04:20;32.55;40.55
67157;SHT31;54086;50.126;8.710;2023-06-10T12:06:51;31.98;41.28
67157;SHT31;54086;50.126;8.710;2023-06-10T12:09:34;30.91;43.13
67157;SHT31;54086;50.126;8.710;2023-06-10T12:12:04;31.87;41.42
67157;SHT31;54086;50.126;8.710;2023-06-10T12:14:53;32.30;40.92
67157;SHT31;54086;50.126;8.710;2023-06-10T12:17:43;32.30;40.67
67157;SHT31;54086;50.126;8.710;2023-06-10T12:20:23;34.15;38.11
67157;SHT31;54086;50.126;8.710;2023-06-10T12:22:49;32.38;40.29
67157;SHT31;54086;50.126;8.710;2023-06-10T12:25:14;31.42;41.53
67157;SHT31;54086;50.126;8.710;2023-06-10T12:27:49;31.96;40.42
67157;SHT31;54086;50.126;8.710;2023-06-10T12:30:23;31.97;40.59
67157;SHT31;54086;50.126;8.710;2023-06-10T12:32:49;33.82;38.16
67157;SHT31;54086;50.126;8.710;2023-06-10T12:35:20;33.82;38.51
67157;SHT31;54086;50.126;8.710;2023-06-10T12:38:03;32.61;39.17
67157;SHT31;54086;50.126;8.710;2023-06-10T12:40:33;31.93;40.13
67157;SHT31;54086;50.126;8.710;2023-06-10T12:43:00;32.99;38.65
67157;SHT31;54086;50.126;8.710;2023-06-10T12:45:36;33.64;37.51
67157;SHT31;54086;50.126;8.710;2023-06-10T12:48:21;33.84;37.39
67157;SHT31;54086;50.126;8.710;2023-06-10T12:51:04;34.44;36.64
67157;SHT31;54086;50.126;8.710;2023-06-10T12:53:32;34.29;36.43
67157;SHT31;54086;50.126;8.710;2023-06-10T12:55:58;33.61;37.41
67157;SHT31;54086;50.126;8.710;2023-06-10T12:58:24;34.49;36.99
67157;SHT31;54086;50.126;8.710;2023-06-10T13:01:07;34.22;37.78
67157;SHT31;54086;50.126;8.710;2023-06-10T13:03:33;34.86;36.93
67157;SHT31;54086;50.126;8.710;2023-06-10T13:05:59;34.78;37.14
67157;SHT31;54086;50.126;8.710;2023-06-10T13:08:24;35.17;36.18
67157;SHT31;54086;50.126;8.710;2023-06-10T13:10:50;35.29;36.41
67157;SHT31;54086;50.126;8.710;2023-06-10T13:13:15;35.13;36.12
67157;SHT31;54086;50.126;8.710;2023-06-10T13:15:41;35.43;34.77
67157;SHT31;54086;50.126;8.710;2023-06-10T13:18:06;34.65;34.57
67157;SHT31;54086;50.126;8.710;2023-06-10T13:20:32;34.82;34.23
67157;SHT31;54086;50.126;8.710;2023-06-10T13:22:57;34.31;34.61
67157;SHT31;54086;50.126;8.710;2023-06-10T13:25:23;35.75;33.18
67157;SHT31;54086;50.126;8.710;2023-06-10T13:27:48;34.49;35.64
67157;SHT31;54086;50.126;8.710;2023-06-10T13:30:13;33.64;37.39
67157;SHT31;54086;50.126;8.710;2023-06-10T13:32:39;33.27;37.91
67157;SHT31;54086;50.126;8.710;2023-06-10T13:35:05;33.06;39.13
67157;SHT31;54086;50.126;8.710;2023-06-10T13:37:30;32.00;40.53
67157;SHT31;54086;50.126;8.710;2023-06-10T13:39:56;31.79;40.61
67157;SHT31;54086;50.126;8.710;2023-06-10T13:42:21;32.76;39.39
67157;SHT31;54086;50.126;8.710;2023-06-10T13:44:47;33.59;38.58
67157;SHT31;54086;50.126;8.710;2023-06-10T13:47:14;34.17;37.56
67157;SHT31;54086;50.126;8.710;2023-06-10T13:49:39;33.29;38.37
67157;SHT31;54086;50.126;8.710;2023-06-10T13:52:05;34.21;36.96
67157;SHT31;54086;50.126;8.710;2023-06-10T13:54:31;34.14;37.14
67157;SHT31;54086;50.126;8.710;2023-06-10T13:56:57;34.52;35.95
67157;SHT31;54086;50.126;8.710;2023-06-10T13:59:22;33.61;37.43
67157;SHT31;54086;50.126;8.710;2023-06-10T14:01:48;32.65;38.88
67157;SHT31;54086;50.126;8.710;2023-06-10T14:04:13;31.84;39.68
67157;SHT31;54086;50.126;8.710;2023-06-10T14:06:39;31.79;40.28
67157;SHT31;54086;50.126;8.710;2023-06-10T14:09:04;33.01;38.38
67157;SHT31;54086;50.126;8.710;2023-06-10T14:11:30;33.12;38.37
67157;SHT31;54086;50.126;8.710;2023-06-10T14:13:56;33.40;37.66
67157;SHT31;54086;50.126;8.710;2023-06-10T14:16:22;32.65;39.03
67157;SHT31;54086;50.126;8.710;2023-06-10T14:18:48;33.54;38.24
67157;SHT31;54086;50.126;8.710;2023-06-10T14:21:15;34.17;36.90
67157;SHT31;54086;50.126;8.710;2023-06-10T14:23:40;33.54;37.21
67157;SHT31;54086;50.126;8.710;2023-06-10T14:26:06;33.26;37.32
67157;SHT31;54086;50.126;8.710;2023-06-10T14:28:32;32.98;37.52
67157;SHT31;54086;50.126;8.710;2023-06-10T14:30:57;32.06;38.71
67157;SHT31;54086;50.126;8.710;2023-06-10T14:33:23;33.08;37.29
67157;SHT31;54086;50.126;8.710;2023-06-10T14:35:49;33.56;36.45
67157;SHT31;54086;50.126;8.710;2023-06-10T14:38:14;34.11;36.02
67157;SHT31;54086;50.126;8.710;2023-06-10T14:40:40;35.04;34.99
67157;SHT31;54086;50.126;8.710;2023-06-10T14:43:05;35.33;35.04
67157;SHT31;54086;50.126;8.710;2023-06-10T14:45:36;34.19;36.77
67157;SHT31;54086;50.126;8.710;2023-06-10T14:48:02;33.96;37.28
67157;SHT31;54086;50.126;8.710;2023-06-10T14:50:27;34.34;36.99
67157;SHT31;54086;50.126;8.710;2023-06-10T14:52:55;33.47;37.85
67157;SHT31;54086;50.126;8.710;2023-06-10T14:55:22;33.64;37.59
67157;SHT31;54086;50.126;8.710;2023-06-10T14:57:50;34.37;36.26
67157;SHT31;54086;50.126;8.710;2023-06-10T15:00:16;34.34;36.23
67157;SHT31;54086;50.126;8.710;2023-06-10T15:02:42;34.19;36.40
67157;SHT31;54086;50.126;8.710;2023-06-10T15:05:08;33.02;37.68
67157;SHT31;54086;50.126;8.710;2023-06-10T15:07:33;32.28;38.03
67157;SHT31;54086;50.126;8.710;2023-06-10T15:09:59;32.21;38.61
67157;SHT31;54086;50.126;8.710;2023-06-10T15:12:25;32.37;38.25
67157;SHT31;54086;50.126;8.710;2023-06-10T15:14:50;32.19;38.64
67157;SHT31;54086;50.126;8.710;2023-06-10T15:17:15;32.85;37.85
67157;SHT31;54086;50.126;8.710;2023-06-10T15:19:41;32.07;38.75
67157;SHT31;54086;50.126;8.710;2023-06-10T15:22:06;31.70;39.02
67157;SHT31;54086;50.126;8.710;2023-06-10T15:24:32;31.55;39.42
67157;SHT31;54086;50.126;8.710;2023-06-10T15:26:57;31.05;39.60
67157;SHT31;54086;50.126;8.710;2023-06-10T15:29:22;30.67;40.16
67157;SHT31;54086;50.126;8.710;2023-06-10T15:31:48;30.48;40.81
67157;SHT31;54086;50.126;8.710;2023-06-10T15:34:13;30.66;40.48
67157;SHT31;54086;50.126;8.710;2023-06-10T15:36:38;30.60;40.87
67157;SHT31;54086;50.126;8.710;2023-06-10T15:39:05;30.54;40.87
67157;SHT31;54086;50.126;8.710;2023-06-10T15:41:32;31.02;40.70